Time;durP1;ratioP1;P1;durP2;ratioP2;P2;SDS_P1;SDS_P2;PMS_P1;PMS_P2;Temp;Humidity;BMP_temperature;BMP_pressure;BME280_temperature;BME280_humidity;BME280_pressure;Samples;Min_cycle;Max_cycle;Signal;HPM_P1;HPM_P2
2021/08/25 00:06:24;;;;;;;7.93;2.40;;;26.50;40.80;;;;;;21150689;27;80713;-73
2021/08/25 00:16:27;;;;;;;10.65;2.90;;;26.40;41.20;;;;;;21132245;27;81036;-77
2021/08/25 00:26:29;;;;;;;11.38;2.90;;;26.30;41.10;;;;;;21131407;27;82175;-75
2021/08/25 00:36:31;;;;;;;13.52;3.28;;;26.10;41.30;;;;;;21148421;27;81076;-72
2021/08/25 00:46:36;;;;;;;9.90;3.17;;;26.10;41.30;;;;;;21127564;27;80888;-72
2021/08/25 00:56:39;;;;;;;12.32;2.47;;;26.00;41.80;;;;;;21128344;27;81098;-72
2021/08/25 01:06:41;;;;;;;9.52;2.13;;;25.90;42.50;;;;;;21127800;27;80642;-72
2021/08/25 01:16:48;;;;;;;9.70;2.67;;;25.60;43.30;;;;;;21128285;27;81195;-72
2021/08/25 01:26:53;;;;;;;11.77;2.28;;;25.50;44.20;;;;;;21144552;27;80758;-74
2021/08/25 01:36:56;;;;;;;8.00;1.77;;;25.40;45.00;;;;;;21126322;27;81109;-72
2021/08/25 01:46:59;;;;;;;10.05;2.60;;;25.20;47.80;;;;;;21127692;27;82686;-71
2021/08/25 01:57:10;;;;;;;10.73;2.90;;;24.90;48.20;;;;;;21125861;27;80106;-75
2021/08/25 02:07:17;;;;;;;13.68;2.95;;;24.80;49.20;;;;;;21124267;27;81036;-70
2021/08/25 02:17:24;;;;;;;12.55;3.25;;;24.50;50.70;;;;;;21123427;27;80043;-70
2021/08/25 02:27:28;;;;;;;10.57;3.28;;;24.30;52.30;;;;;;21140773;27;80029;-74
2021/08/25 02:37:42;;;;;;;7.28;2.95;;;24.20;53.60;;;;;;21123457;27;80827;-74
2021/08/25 02:47:45;;;;;;;11.38;3.70;;;24.00;53.90;;;;;;21120650;27;80768;-72
2021/08/25 02:57:49;;;;;;;10.45;4.38;;;24.00;54.40;;;;;;21119849;27;80901;-73
2021/08/25 03:07:51;;;;;;;10.13;2.92;;;24.00;55.00;;;;;;21118997;27;80738;-71
2021/08/25 03:18:10;;;;;;;10.45;3.60;;;23.90;56.10;;;;;;21121756;27;80942;-71
2021/08/25 03:28:32;;;;;;;14.47;4.60;;;23.90;56.40;;;;;;21122064;27;80126;-70
2021/08/25 03:38:45;;;;;;;16.08;3.35;;;23.80;56.40;;;;;;21119729;27;80222;-72
2021/08/25 03:48:50;;;;;;;9.40;4.03;;;23.70;58.40;;;;;;21136851;27;79981;-72
2021/08/25 03:59:05;;;;;;;13.77;4.03;;;23.50;59.20;;;;;;21118720;27;80036;-74
2021/08/25 04:09:11;;;;;;;14.85;3.67;;;23.40;59.40;;;;;;21135825;27;81314;-73
2021/08/25 04:19:24;;;;;;;14.32;4.47;;;23.30;60.80;;;;;;21127985;27;80119;-71
2021/08/25 04:29:34;;;;;;;21.60;5.60;;;23.30;60.20;;;;;;21150009;27;81360;-72
2021/08/25 04:39:45;;;;;;;9.83;4.03;;;23.20;61.00;;;;;;21132853;27;81082;-74
2021/08/25 04:50:00;;;;;;;9.63;3.50;;;23.20;61.40;;;;;;21133121;27;81265;-74
2021/08/25 05:00:07;;;;;;;12.55;4.45;;;23.00;61.90;;;;;;21130829;27;80676;-77
2021/08/25 05:10:10;;;;;;;13.27;4.47;;;22.90;62.50;;;;;;21128786;27;81224;-75
2021/08/25 05:20:13;;;;;;;11.35;4.80;;;22.90;63.60;;;;;;21128488;27;80666;-74
2021/08/25 05:30:18;;;;;;;12.70;3.80;;;22.90;63.80;;;;;;21158823;27;81784;-72
2021/08/25 05:40:24;;;;;;;12.40;4.13;;;22.70;65.00;;;;;;21196555;27;81517;-72
2021/08/25 05:50:26;;;;;;;12.65;3.83;;;22.70;64.60;;;;;;21212642;27;82880;-72
2021/08/25 06:00:29;;;;;;;13.73;3.90;;;22.70;64.60;;;;;;21199317;27;81191;-70
2021/08/25 06:10:32;;;;;;;13.93;4.32;;;22.60;65.00;;;;;;21219769;27;80176;-65
2021/08/25 06:20:37;;;;;;;10.93;4.07;;;22.70;64.60;;;;;;21196743;27;81627;-66
2021/08/25 06:30:40;;;;;;;16.33;4.13;;;22.90;63.90;;;;;;21212974;27;81324;-66
2021/08/25 06:40:42;;;;;;;14.57;4.63;;;22.80;64.30;;;;;;21197548;27;81931;-66
2021/08/25 06:50:45;;;;;;;14.02;4.20;;;22.90;64.10;;;;;;21195266;27;81864;-69
2021/08/25 07:00:51;;;;;;;12.00;4.93;;;23.10;63.40;;;;;;21214563;27;81325;-67
2021/08/25 07:10:54;;;;;;;17.67;4.85;;;23.30;62.60;;;;;;21213784;27;81733;-66
2021/08/25 07:20:58;;;;;;;17.55;5.00;;;23.40;61.80;;;;;;21195588;27;81767;-65
2021/08/25 07:31:03;;;;;;;16.85;4.72;;;23.60;61.60;;;;;;21193387;27;81088;-66
2021/08/25 07:41:08;;;;;;;17.73;4.05;;;23.90;59.90;;;;;;21210403;27;81287;-64
2021/08/25 07:51:11;;;;;;;22.50;5.15;;;24.10;59.00;;;;;;21215500;27;81472;-66
2021/08/25 08:01:14;;;;;;;11.90;4.55;;;24.30;57.90;;;;;;21206735;27;82373;-65
2021/08/25 08:11:28;;;;;;;14.38;5.03;;;24.70;57.10;;;;;;21225586;27;81476;-65
2021/08/25 08:21:31;;;;;;;14.45;5.50;;;25.00;56.10;;;;;;21206170;27;81052;-65
2021/08/25 08:31:33;;;;;;;15.93;4.88;;;25.40;55.60;;;;;;21202279;27;81826;-68
2021/08/25 08:41:40;;;;;;;14.70;3.63;;;25.70;54.00;;;;;;21192148;27;81572;-66
2021/08/25 08:51:46;;;;;;;21.02;4.82;;;26.00;52.80;;;;;;21202652;27;81918;-66
2021/08/25 09:01:51;;;;;;;14.23;3.40;;;26.20;52.00;;;;;;21201983;27;81657;-68
2021/08/25 09:11:55;;;;;;;16.52;4.30;;;26.30;51.90;;;;;;21205318;27;80878;-68
2021/08/25 09:22:00;;;;;;;22.77;5.45;;;26.80;50.60;;;;;;21202305;27;81393;-68
2021/08/25 09:32:02;;;;;;;17.45;4.68;;;27.10;49.40;;;;;;21202892;27;81447;-68
2021/08/25 09:42:06;;;;;;;23.35;5.68;;;27.70;47.30;;;;;;21202892;27;81918;-69
2021/08/25 09:52:33;;;;;;;18.17;5.72;;;28.20;46.00;;;;;;21202417;27;81798;-68
2021/08/25 10:02:36;;;;;;;21.08;4.90;;;28.70;44.70;;;;;;21218574;27;80989;-68
2021/08/25 10:12:39;;;;;;;16.52;4.85;;;29.80;43.10;;;;;;21199039;27;81091;-68
2021/08/25 10:22:47;;;;;;;10.27;3.67;;;31.00;39.90;;;;;;21196570;27;81250;-67
2021/08/25 10:32:52;;;;;;;15.32;4.57;;;32.00;38.00;;;;;;21196291;27;81072;-69
2021/08/25 10:43:00;;;;;;;12.48;4.25;;;33.20;35.30;;;;;;21196639;27;81654;-66
2021/08/25 10:53:31;;;;;;;20.13;4.65;;;34.90;32.30;;;;;;21217691;27;81338;-67
2021/08/25 11:03:36;;;;;;;16.25;4.32;;;37.40;28.60;;;;;;21197171;27;82020;-68
2021/08/25 11:13:38;;;;;;;15.90;4.95;;;38.90;26.50;;;;;;21195939;27;81122;-68
2021/08/25 11:23:57;;;;;;;12.40;4.63;;;41.80;23.80;;;;;;21211331;27;81859;-67
2021/08/25 11:34:00;;;;;;;10.10;5.10;;;44.30;21.00;;;;;;21223873;27;81372;-67
2021/08/25 11:44:03;;;;;;;18.80;5.07;;;45.00;20.30;;;;;;21239619;27;80740;-66
2021/08/25 11:54:05;;;;;;;16.67;4.82;;;47.00;18.90;;;;;;21237584;27;81576;-65
2021/08/25 12:04:08;;;;;;;9.57;4.53;;;48.00;18.00;;;;;;21223842;27;81067;-67
2021/08/25 12:14:10;;;;;;;18.42;5.22;;;49.70;17.20;;;;;;21218783;27;81275;-63
2021/08/25 12:24:15;;;;;;;11.65;5.00;;;49.50;17.10;;;;;;21219697;27;81724;-63
2021/08/25 12:34:19;;;;;;;9.48;4.45;;;49.10;17.30;;;;;;21216897;27;81624;-63
2021/08/25 12:44:22;;;;;;;14.07;4.90;;;45.70;19.20;;;;;;21203437;27;81181;-62
2021/08/25 12:54:26;;;;;;;11.63;5.32;;;49.60;17.00;;;;;;21198216;27;81533;-66
2021/08/25 13:04:29;;;;;;;9.48;5.03;;;51.10;15.70;;;;;;21207369;27;80603;-66
2021/08/25 13:14:31;;;;;;;10.20;4.55;;;50.30;16.20;;;;;;21213405;27;80549;-66
2021/08/25 13:24:34;;;;;;;9.98;4.43;;;46.50;18.10;;;;;;21214799;27;80813;-65
2021/08/25 13:34:37;;;;;;;9.25;5.60;;;43.40;19.90;;;;;;21233641;27;83168;-64
2021/08/25 13:44:39;;;;;;;11.10;4.72;;;44.90;18.80;;;;;;21231256;27;80028;-65
2021/08/25 13:54:41;;;;;;;13.55;6.07;;;45.20;18.60;;;;;;21211940;27;81034;-64
2021/08/25 14:04:44;;;;;;;9.43;4.80;;;47.70;17.10;;;;;;21230708;27;81617;-64
2021/08/25 14:14:46;;;;;;;8.77;4.95;;;43.20;19.60;;;;;;21229779;27;80551;-63
2021/08/25 14:24:48;;;;;;;16.90;6.15;;;38.80;23.00;;;;;;21211719;27;79824;-63
2021/08/25 14:34:50;;;;;;;11.75;5.30;;;36.50;25.60;;;;;;21211419;27;80848;-67
2021/08/25 14:44:52;;;;;;;15.05;6.05;;;34.90;27.40;;;;;;21228854;27;80934;-68
2021/08/25 14:54:54;;;;;;;14.23;6.18;;;33.50;28.90;;;;;;21210654;27;81072;-66
2021/08/25 15:04:57;;;;;;;11.30;6.13;;;33.20;29.50;;;;;;21208345;27;81120;-68
2021/08/25 15:14:58;;;;;;;13.32;6.28;;;32.60;31.10;;;;;;21226341;27;81772;-68
2021/08/25 15:25:00;;;;;;;12.68;6.70;;;32.30;31.90;;;;;;21208334;27;81035;-67
2021/08/25 15:35:03;;;;;;;14.32;7.32;;;32.00;32.40;;;;;;21207424;27;80779;-67
2021/08/25 15:45:06;;;;;;;17.70;6.35;;;31.70;33.20;;;;;;21204067;27;81009;-70
2021/08/25 15:55:08;;;;;;;14.38;6.82;;;31.80;33.20;;;;;;21199210;27;81700;-69
2021/08/25 16:05:10;;;;;;;8.93;5.85;;;31.70;33.40;;;;;;21221861;27;82398;-70
2021/08/25 16:15:12;;;;;;;14.05;6.07;;;31.90;32.90;;;;;;21213825;27;81193;-68
2021/08/25 16:25:14;;;;;;;12.77;5.70;;;32.20;32.10;;;;;;21232054;27;80822;-69
2021/08/25 16:35:16;;;;;;;12.15;5.90;;;32.00;31.80;;;;;;21216264;27;81176;-68
2021/08/25 16:45:18;;;;;;;8.88;4.95;;;32.20;31.50;;;;;;21216796;27;81070;-71
2021/08/25 16:55:20;;;;;;;9.10;5.05;;;32.20;29.70;;;;;;21218273;27;80713;-69
2021/08/25 17:05:22;;;;;;;9.77;4.53;;;32.10;30.00;;;;;;21235120;27;83742;-70
2021/08/25 17:15:23;;;;;;;10.00;4.40;;;32.00;28.70;;;;;;21215811;27;81161;-69
2021/08/25 17:25:26;;;;;;;12.35;5.60;;;31.80;28.60;;;;;;21214749;27;80573;-69
2021/08/25 17:35:27;;;;;;;12.18;6.55;;;31.70;28.80;;;;;;21212928;27;80844;-69
2021/08/25 17:45:30;;;;;;;13.23;7.25;;;31.50;30.50;;;;;;21231382;27;81089;-70
2021/08/25 17:55:34;;;;;;;14.07;7.25;;;31.10;34.00;;;;;;21212470;27;81152;-69
2021/08/25 18:05:36;;;;;;;24.70;9.63;;;30.80;35.10;;;;;;21231015;27;80347;-67
2021/08/25 18:15:38;;;;;;;18.92;6.95;;;30.60;36.70;;;;;;21229079;27;80671;-65
2021/08/25 18:25:40;;;;;;;17.52;8.00;;;30.30;38.00;;;;;;21210285;27;82117;-66
2021/08/25 18:35:42;;;;;;;17.20;6.82;;;30.00;38.70;;;;;;21209340;27;79927;-66
2021/08/25 18:45:43;;;;;;;12.43;7.20;;;29.80;39.00;;;;;;21202972;27;80443;-72
2021/08/25 18:55:45;;;;;;;13.85;7.00;;;29.60;39.40;;;;;;21227078;27;80311;-73
2021/08/25 19:05:46;;;;;;;15.82;5.63;;;29.60;39.70;;;;;;21205322;27;81038;-72
2021/08/25 19:15:47;;;;;;;13.75;5.28;;;29.20;39.70;;;;;;21227664;27;80725;-73
2021/08/25 19:25:48;;;;;;;12.23;4.20;;;28.70;39.50;;;;;;21204290;27;80109;-73
2021/08/25 19:35:51;;;;;;;18.45;5.57;;;28.50;38.70;;;;;;21208285;27;80364;-75
2021/08/25 19:45:51;;;;;;;28.13;14.85;;;28.20;38.50;;;;;;21208118;27;81283;-74
2021/08/25 19:55:55;;;;;;;12.43;5.38;;;28.20;38.50;;;;;;21211437;27;82748;-73
2021/08/25 20:05:58;;;;;;;10.80;5.43;;;28.00;38.20;;;;;;21239342;27;83320;-72
2021/08/25 20:16:02;;;;;;;15.52;5.47;;;27.90;38.10;;;;;;21222581;27;80673;-73
2021/08/25 20:26:04;;;;;;;15.40;5.10;;;27.90;37.90;;;;;;21192372;27;81275;-74
2021/08/25 20:36:06;;;;;;;8.57;4.72;;;27.80;37.60;;;;;;21133491;27;80670;-73
2021/08/25 20:46:08;;;;;;;10.93;5.15;;;27.80;37.50;;;;;;21149385;27;80497;-73
2021/08/25 20:56:10;;;;;;;9.07;4.57;;;27.80;38.20;;;;;;21130377;27;81200;-72
2021/08/25 21:06:12;;;;;;;15.57;5.65;;;27.60;38.70;;;;;;21129414;27;81054;-74
2021/08/25 21:16:14;;;;;;;12.40;5.50;;;27.60;39.40;;;;;;21149722;27;81005;-71
2021/08/25 21:26:16;;;;;;;11.73;5.82;;;27.50;40.40;;;;;;21131877;27;80985;-71
2021/08/25 21:36:18;;;;;;;18.55;6.70;;;27.50;40.80;;;;;;21145587;27;80780;-72
2021/08/25 21:46:20;;;;;;;16.90;8.25;;;27.40;41.30;;;;;;21126830;27;80716;-72
2021/08/25 21:56:22;;;;;;;13.30;5.63;;;27.30;41.70;;;;;;21126803;27;81767;-71
2021/08/25 22:06:23;;;;;;;13.70;6.00;;;27.10;42.00;;;;;;21126050;27;79994;-72
2021/08/25 22:16:26;;;;;;;11.70;5.88;;;27.00;42.40;;;;;;21124773;27;81853;-76
2021/08/25 22:26:27;;;;;;;10.25;4.82;;;26.90;42.60;;;;;;21142675;27;80702;-75
2021/08/25 22:36:29;;;;;;;10.48;4.88;;;26.80;42.70;;;;;;21123874;27;80929;-72
2021/08/25 22:46:31;;;;;;;15.40;5.25;;;26.70;42.70;;;;;;21123027;27;80616;-73
2021/08/25 22:56:33;;;;;;;13.38;5.38;;;26.70;42.50;;;;;;21140372;27;80729;-72
2021/08/25 23:06:34;;;;;;;12.27;5.60;;;26.50;42.60;;;;;;21139365;27;80004;-72
2021/08/25 23:16:36;;;;;;;11.65;5.45;;;26.50;42.80;;;;;;21139319;27;82090;-71
2021/08/25 23:26:40;;;;;;;11.30;5.47;;;26.40;43.00;;;;;;21119940;27;80297;-73
2021/08/25 23:36:42;;;;;;;10.60;5.25;;;26.20;43.00;;;;;;21119734;27;81149;-71
2021/08/25 23:46:48;;;;;;;13.35;5.28;;;26.10;43.70;;;;;;21137348;27;80096;-72
2021/08/25 23:56:50;;;;;;;8.85;5.45;;;26.00;44.30;;;;;;21137886;27;81034;-76
